sensor_id;sensor_type;location;lat;lon;timestamp;temperature;humidity
7576;DHT22;3829;50.798;4.358;2024-01-27T00:01:35;3.80;99.90
7576;DHT22;3829;50.798;4.358;2024-01-27T00:04:01;3.70;99.90
7576;DHT22;3829;50.798;4.358;2024-01-27T00:06:27;3.80;99.90
7576;DHT22;3829;50.798;4.358;2024-01-27T00:08:52;3.80;99.90
7576;DHT22;3829;50.798;4.358;2024-01-27T00:11:18;3.70;99.90
7576;DHT22;3829;50.798;4.358;2024-01-27T00:13:45;3.70;99.90
7576;DHT22;3829;50.798;4.358;2024-01-27T00:16:11;3.70;99.90
7576;DHT22;3829;50.798;4.358;2024-01-27T00:18:37;3.70;99.90
7576;DHT22;3829;50.798;4.358;2024-01-27T00:21:03;3.70;99.90
7576;DHT22;3829;50.798;4.358;2024-01-27T00:23:29;3.70;99.90
7576;DHT22;3829;50.798;4.358;2024-01-27T00:25:55;3.70;99.90
7576;DHT22;3829;50.798;4.358;2024-01-27T00:28:20;3.70;99.90
7576;DHT22;3829;50.798;4.358;2024-01-27T00:30:46;3.70;99.90
7576;DHT22;3829;50.798;4.358;2024-01-27T00:33:11;3.60;99.90
7576;DHT22;3829;50.798;4.358;2024-01-27T00:35:37;3.70;99.90
7576;DHT22;3829;50.798;4.358;2024-01-27T00:38:02;3.70;99.90
7576;DHT22;3829;50.798;4.358;2024-01-27T00:40:28;3.70;99.90
7576;DHT22;3829;50.798;4.358;2024-01-27T00:42:54;3.70;99.90
7576;DHT22;3829;50.798;4.358;2024-01-27T00:45:20;3.60;99.90
7576;DHT22;3829;50.798;4.358;2024-01-27T00:47:49;3.60;99.90
7576;DHT22;3829;50.798;4.358;2024-01-27T00:50:15;3.60;99.90
7576;DHT22;3829;50.798;4.358;2024-01-27T00:52:40;3.60;99.90
7576;DHT22;3829;50.798;4.358;2024-01-27T00:55:06;3.60;99.90
7576;DHT22;3829;50.798;4.358;2024-01-27T00:57:32;3.60;99.90
7576;DHT22;3829;50.798;4.358;2024-01-27T00:59:57;3.50;99.90
7576;DHT22;3829;50.798;4.358;2024-01-27T01:02:23;3.50;99.90
7576;DHT22;3829;50.798;4.358;2024-01-27T01:04:49;3.40;99.90
7576;DHT22;3829;50.798;4.358;2024-01-27T01:07:14;3.40;99.90
7576;DHT22;3829;50.798;4.358;2024-01-27T01:09:43;3.40;99.90
7576;DHT22;3829;50.798;4.358;2024-01-27T01:12:08;3.40;99.90
7576;DHT22;3829;50.798;4.358;2024-01-27T01:14:34;3.40;99.90
7576;DHT22;3829;50.798;4.358;2024-01-27T01:17:00;3.40;99.90
7576;DHT22;3829;50.798;4.358;2024-01-27T01:19:26;3.30;99.90
7576;DHT22;3829;50.798;4.358;2024-01-27T01:21:52;3.40;99.90
7576;DHT22;3829;50.798;4.358;2024-01-27T01:24:17;3.20;99.90
7576;DHT22;3829;50.798;4.358;2024-01-27T01:26:44;3.20;99.90
7576;DHT22;3829;50.798;4.358;2024-01-27T01:29:09;3.30;99.90
7576;DHT22;3829;50.798;4.358;2024-01-27T01:31:35;3.30;99.90
7576;DHT22;3829;50.798;4.358;2024-01-27T01:34:00;3.30;99.90
7576;DHT22;3829;50.798;4.358;2024-01-27T01:36:26;3.30;99.90
7576;DHT22;3829;50.798;4.358;2024-01-27T01:38:51;3.30;99.90
7576;DHT22;3829;50.798;4.358;2024-01-27T01:41:17;3.20;99.90
7576;DHT22;3829;50.798;4.358;2024-01-27T01:43:42;3.20;99.90
7576;DHT22;3829;50.798;4.358;2024-01-27T01:46:08;3.00;99.90
7576;DHT22;3829;50.798;4.358;2024-01-27T01:48:34;3.10;99.90
7576;DHT22;3829;50.798;4.358;2024-01-27T01:51:00;3.20;99.90
7576;DHT22;3829;50.798;4.358;2024-01-27T01:53:25;3.10;99.90
7576;DHT22;3829;50.798;4.358;2024-01-27T01:55:52;3.10;99.90
7576;DHT22;3829;50.798;4.358;2024-01-27T01:58:18;3.10;99.90
7576;DHT22;3829;50.798;4.358;2024-01-27T02:00:43;3.10;99.90
7576;DHT22;3829;50.798;4.358;2024-01-27T02:03:13;3.00;99.90
7576;DHT22;3829;50.798;4.358;2024-01-27T02:05:39;3.00;99.90
7576;DHT22;3829;50.798;4.358;2024-01-27T02:08:05;3.10;99.90
7576;DHT22;3829;50.798;4.358;2024-01-27T02:10:31;3.00;99.90
7576;DHT22;3829;50.798;4.358;2024-01-27T02:13:03;3.00;99.90
7576;DHT22;3829;50.798;4.358;2024-01-27T02:15:30;3.00;99.90
7576;DHT22;3829;50.798;4.358;2024-01-27T02:17:56;3.00;99.90
7576;DHT22;3829;50.798;4.358;2024-01-27T02:20:21;3.10;99.90
7576;DHT22;3829;50.798;4.358;2024-01-27T02:22:47;3.10;99.90
7576;DHT22;3829;50.798;4.358;2024-01-27T02:25:12;3.10;99.90
7576;DHT22;3829;50.798;4.358;2024-01-27T02:27:38;3.00;99.90
7576;DHT22;3829;50.798;4.358;2024-01-27T02:30:04;3.00;99.90
7576;DHT22;3829;50.798;4.358;2024-01-27T02:32:29;3.00;99.90
7576;DHT22;3829;50.798;4.358;2024-01-27T02:34:55;3.00;99.90
7576;DHT22;3829;50.798;4.358;2024-01-27T02:37:21;2.90;99.90
7576;DHT22;3829;50.798;4.358;2024-01-27T02:39:46;2.90;99.90
7576;DHT22;3829;50.798;4.358;2024-01-27T02:42:12;2.90;99.90
7576;DHT22;3829;50.798;4.358;2024-01-27T02:44:37;2.90;99.90
7576;DHT22;3829;50.798;4.358;2024-01-27T02:47:03;2.80;99.90
7576;DHT22;3829;50.798;4.358;2024-01-27T02:49:28;2.80;99.90
7576;DHT22;3829;50.798;4.358;2024-01-27T02:51:54;2.80;99.90
7576;DHT22;3829;50.798;4.358;2024-01-27T02:54:19;2.80;99.90
7576;DHT22;3829;50.798;4.358;2024-01-27T02:56:46;2.70;99.90
7576;DHT22;3829;50.798;4.358;2024-01-27T02:59:12;2.80;99.90
7576;DHT22;3829;50.798;4.358;2024-01-27T03:01:37;2.70;99.90
7576;DHT22;3829;50.798;4.358;2024-01-27T03:04:03;2.80;99.90
7576;DHT22;3829;50.798;4.358;2024-01-27T03:06:32;2.80;99.90
7576;DHT22;3829;50.798;4.358;2024-01-27T03:08:58;2.80;99.90
7576;DHT22;3829;50.798;4.358;2024-01-27T03:11:23;2.80;99.90
7576;DHT22;3829;50.798;4.358;2024-01-27T03:13:49;2.80;99.90
7576;DHT22;3829;50.798;4.358;2024-01-27T03:16:15;2.80;99.90
7576;DHT22;3829;50.798;4.358;2024-01-27T03:18:42;2.80;99.90
7576;DHT22;3829;50.798;4.358;2024-01-27T03:21:08;2.80;99.90
7576;DHT22;3829;50.798;4.358;2024-01-27T03:23:34;2.80;99.90
7576;DHT22;3829;50.798;4.358;2024-01-27T03:26:02;2.80;99.90
7576;DHT22;3829;50.798;4.358;2024-01-27T03:28:27;2.80;99.90
7576;DHT22;3829;50.798;4.358;2024-01-27T03:30:53;2.60;99.90
7576;DHT22;3829;50.798;4.358;2024-01-27T03:33:18;2.80;99.90
7576;DHT22;3829;50.798;4.358;2024-01-27T03:35:44;2.80;99.90
7576;DHT22;3829;50.798;4.358;2024-01-27T03:38:09;2.80;99.90
7576;DHT22;3829;50.798;4.358;2024-01-27T03:40:35;2.80;99.90
7576;DHT22;3829;50.798;4.358;2024-01-27T03:43:00;2.80;99.90
7576;DHT22;3829;50.798;4.358;2024-01-27T03:45:26;2.70;99.90
7576;DHT22;3829;50.798;4.358;2024-01-27T03:47:52;2.60;99.90
7576;DHT22;3829;50.798;4.358;2024-01-27T03:50:17;2.60;99.90
7576;DHT22;3829;50.798;4.358;2024-01-27T03:52:43;2.60;99.90
7576;DHT22;3829;50.798;4.358;2024-01-27T03:55:08;2.60;99.90
7576;DHT22;3829;50.798;4.358;2024-01-27T03:57:34;2.50;99.90
7576;DHT22;3829;50.798;4.358;2024-01-27T03:59:59;2.60;99.90
7576;DHT22;3829;50.798;4.358;2024-01-27T04:02:25;2.60;99.90
7576;DHT22;3829;50.798;4.358;2024-01-27T04:04:50;2.50;99.90
7576;DHT22;3829;50.798;4.358;2024-01-27T04:07:16;2.60;99.90
7576;DHT22;3829;50.798;4.358;2024-01-27T04:09:42;2.60;99.90
7576;DHT22;3829;50.798;4.358;2024-01-27T04:12:07;2.40;99.90
7576;DHT22;3829;50.798;4.358;2024-01-27T04:14:33;2.50;99.90
7576;DHT22;3829;50.798;4.358;2024-01-27T04:16:59;2.60;99.90
7576;DHT22;3829;50.798;4.358;2024-01-27T04:19:24;2.60;99.90
7576;DHT22;3829;50.798;4.358;2024-01-27T04:21:50;2.50;99.90
7576;DHT22;3829;50.798;4.358;2024-01-27T04:24:15;2.50;99.90
7576;DHT22;3829;50.798;4.358;2024-01-27T04:26:41;2.40;99.90
7576;DHT22;3829;50.798;4.358;2024-01-27T04:29:06;2.40;99.90
7576;DHT22;3829;50.798;4.358;2024-01-27T04:31:32;2.40;99.90
7576;DHT22;3829;50.798;4.358;2024-01-27T04:33:57;2.40;99.90
7576;DHT22;3829;50.798;4.358;2024-01-27T04:36:26;2.40;99.90
7576;DHT22;3829;50.798;4.358;2024-01-27T04:38:52;2.40;99.90
7576;DHT22;3829;50.798;4.358;2024-01-27T04:41:17;2.40;99.90
7576;DHT22;3829;50.798;4.358;2024-01-27T04:43:43;2.40;99.90
7576;DHT22;3829;50.798;4.358;2024-01-27T04:46:08;2.40;99.90
7576;DHT22;3829;50.798;4.358;2024-01-27T04:48:34;2.40;99.90
7576;DHT22;3829;50.798;4.358;2024-01-27T04:51:00;2.30;99.90
7576;DHT22;3829;50.798;4.358;2024-01-27T04:53:25;2.30;99.90
7576;DHT22;3829;50.798;4.358;2024-01-27T04:55:51;2.30;99.90
7576;DHT22;3829;50.798;4.358;2024-01-27T04:58:16;2.20;99.90
7576;DHT22;3829;50.798;4.358;2024-01-27T05:00:42;2.30;99.90
7576;DHT22;3829;50.798;4.358;2024-01-27T05:03:07;2.30;99.90
7576;DHT22;3829;50.798;4.358;2024-01-27T05:05:42;2.20;99.90
7576;DHT22;3829;50.798;4.358;2024-01-27T05:08:10;2.30;99.90
7576;DHT22;3829;50.798;4.358;2024-01-27T05:10:35;2.30;99.90
7576;DHT22;3829;50.798;4.358;2024-01-27T05:13:02;2.40;99.90
7576;DHT22;3829;50.798;4.358;2024-01-27T05:15:27;2.40;99.90
7576;DHT22;3829;50.798;4.358;2024-01-27T05:17:53;2.30;99.90
7576;DHT22;3829;50.798;4.358;2024-01-27T05:20:18;2.20;99.90
7576;DHT22;3829;50.798;4.358;2024-01-27T05:22:45;2.20;99.90
7576;DHT22;3829;50.798;4.358;2024-01-27T05:25:11;2.10;99.90
7576;DHT22;3829;50.798;4.358;2024-01-27T05:27:37;2.20;99.90
7576;DHT22;3829;50.798;4.358;2024-01-27T05:30:05;2.30;99.90
7576;DHT22;3829;50.798;4.358;2024-01-27T05:32:30;2.30;99.90
7576;DHT22;3829;50.798;4.358;2024-01-27T05:34:56;2.30;99.90
7576;DHT22;3829;50.798;4.358;2024-01-27T05:37:21;2.20;99.90
7576;DHT22;3829;50.798;4.358;2024-01-27T05:39:47;2.20;99.90
7576;DHT22;3829;50.798;4.358;2024-01-27T05:42:13;2.20;99.90
7576;DHT22;3829;50.798;4.358;2024-01-27T05:44:39;2.40;99.90
7576;DHT22;3829;50.798;4.358;2024-01-27T05:47:06;2.30;99.90
7576;DHT22;3829;50.798;4.358;2024-01-27T05:49:32;2.20;99.90
7576;DHT22;3829;50.798;4.358;2024-01-27T05:51:57;2.20;99.90
7576;DHT22;3829;50.798;4.358;2024-01-27T05:54:24;2.20;99.90
7576;DHT22;3829;50.798;4.358;2024-01-27T05:56:50;2.20;99.90
7576;DHT22;3829;50.798;4.358;2024-01-27T05:59:15;2.20;99.90
7576;DHT22;3829;50.798;4.358;2024-01-27T06:01:41;2.20;99.90
7576;DHT22;3829;50.798;4.358;2024-01-27T06:04:08;2.20;99.90
7576;DHT22;3829;50.798;4.358;2024-01-27T06:06:38;2.20;99.90
7576;DHT22;3829;50.798;4.358;2024-01-27T06:09:03;2.20;99.90
7576;DHT22;3829;50.798;4.358;2024-01-27T06:11:29;2.20;99.90
7576;DHT22;3829;50.798;4.358;2024-01-27T06:13:55;2.20;99.90
7576;DHT22;3829;50.798;4.358;2024-01-27T06:16:20;2.20;99.90
7576;DHT22;3829;50.798;4.358;2024-01-27T06:18:46;2.20;99.90
7576;DHT22;3829;50.798;4.358;2024-01-27T06:21:11;2.20;99.90
7576;DHT22;3829;50.798;4.358;2024-01-27T06:23:37;2.10;99.90
7576;DHT22;3829;50.798;4.358;2024-01-27T06:26:06;2.10;99.90
7576;DHT22;3829;50.798;4.358;2024-01-27T06:28:32;2.10;99.90
7576;DHT22;3829;50.798;4.358;2024-01-27T06:30:57;2.00;99.90
7576;DHT22;3829;50.798;4.358;2024-01-27T06:33:23;2.10;99.90
7576;DHT22;3829;50.798;4.358;2024-01-27T06:35:49;2.10;99.90
7576;DHT22;3829;50.798;4.358;2024-01-27T06:38:14;2.10;99.90
7576;DHT22;3829;50.798;4.358;2024-01-27T06:40:40;2.10;99.90
7576;DHT22;3829;50.798;4.358;2024-01-27T06:43:05;2.10;99.90
7576;DHT22;3829;50.798;4.358;2024-01-27T06:45:31;2.20;99.90
7576;DHT22;3829;50.798;4.358;2024-01-27T06:47:56;2.20;99.90
7576;DHT22;3829;50.798;4.358;2024-01-27T06:50:22;2.10;99.90
7576;DHT22;3829;50.798;4.358;2024-01-27T06:52:48;2.10;99.90
7576;DHT22;3829;50.798;4.358;2024-01-27T06:55:13;2.10;99.90
7576;DHT22;3829;50.798;4.358;2024-01-27T06:57:39;2.10;99.90
7576;DHT22;3829;50.798;4.358;2024-01-27T07:00:06;2.10;99.90
7576;DHT22;3829;50.798;4.358;2024-01-27T07:02:32;2.10;99.90
7576;DHT22;3829;50.798;4.358;2024-01-27T07:04:57;2.00;99.90
7576;DHT22;3829;50.798;4.358;2024-01-27T07:07:26;1.80;99.90
7576;DHT22;3829;50.798;4.358;2024-01-27T07:09:54;1.80;99.90
7576;DHT22;3829;50.798;4.358;2024-01-27T07:12:20;1.90;99.90
7576;DHT22;3829;50.798;4.358;2024-01-27T07:14:45;2.00;99.90
7576;DHT22;3829;50.798;4.358;2024-01-27T07:17:11;2.00;99.90
7576;DHT22;3829;50.798;4.358;2024-01-27T07:19:36;2.00;99.90
7576;DHT22;3829;50.798;4.358;2024-01-27T07:22:02;2.00;99.90
7576;DHT22;3829;50.798;4.358;2024-01-27T07:24:29;2.00;99.90
7576;DHT22;3829;50.798;4.358;2024-01-27T07:26:54;1.90;99.90
7576;DHT22;3829;50.798;4.358;2024-01-27T07:29:20;1.90;99.90
7576;DHT22;3829;50.798;4.358;2024-01-27T07:31:46;1.80;99.90
7576;DHT22;3829;50.798;4.358;2024-01-27T07:34:12;1.90;99.90
7576;DHT22;3829;50.798;4.358;2024-01-27T07:36:38;1.90;99.90
7576;DHT22;3829;50.798;4.358;2024-01-27T07:39:04;1.80;99.90
7576;DHT22;3829;50.798;4.358;2024-01-27T07:41:30;1.80;99.90
7576;DHT22;3829;50.798;4.358;2024-01-27T07:43:56;1.80;99.90
7576;DHT22;3829;50.798;4.358;2024-01-27T07:46:21;1.90;99.90
7576;DHT22;3829;50.798;4.358;2024-01-27T07:48:48;1.90;99.90
7576;DHT22;3829;50.798;4.358;2024-01-27T07:51:15;2.00;99.90
7576;DHT22;3829;50.798;4.358;2024-01-27T07:53:40;2.00;99.90
7576;DHT22;3829;50.798;4.358;2024-01-27T07:56:07;2.00;99.90
7576;DHT22;3829;50.798;4.358;2024-01-27T07:58:33;2.00;99.90
7576;DHT22;3829;50.798;4.358;2024-01-27T08:00:59;2.00;99.90
7576;DHT22;3829;50.798;4.358;2024-01-27T08:03:24;2.10;99.90
7576;DHT22;3829;50.798;4.358;2024-01-27T08:05:53;2.00;99.90
7576;DHT22;3829;50.798;4.358;2024-01-27T08:08:21;2.00;99.90
7576;DHT22;3829;50.798;4.358;2024-01-27T08:10:46;2.10;99.90
7576;DHT22;3829;50.798;4.358;2024-01-27T08:13:12;2.20;99.90
7576;DHT22;3829;50.798;4.358;2024-01-27T08:15:37;2.30;99.90
7576;DHT22;3829;50.798;4.358;2024-01-27T08:18:03;2.30;99.90
7576;DHT22;3829;50.798;4.358;2024-01-27T08:20:29;2.60;99.90
7576;DHT22;3829;50.798;4.358;2024-01-27T08:22:54;2.60;99.90
7576;DHT22;3829;50.798;4.358;2024-01-27T08:25:20;2.70;99.90
7576;DHT22;3829;50.798;4.358;2024-01-27T08:27:45;2.80;99.90
7576;DHT22;3829;50.798;4.358;2024-01-27T08:30:11;2.80;99.90
7576;DHT22;3829;50.798;4.358;2024-01-27T08:32:37;3.00;99.90
7576;DHT22;3829;50.798;4.358;2024-01-27T08:35:03;3.10;99.90
7576;DHT22;3829;50.798;4.358;2024-01-27T08:37:28;3.20;99.90
7576;DHT22;3829;50.798;4.358;2024-01-27T08:39:55;3.30;99.90
7576;DHT22;3829;50.798;4.358;2024-01-27T08:42:20;3.40;99.90
7576;DHT22;3829;50.798;4.358;2024-01-27T08:44:46;3.50;99.90
7576;DHT22;3829;50.798;4.358;2024-01-27T08:47:11;3.60;99.90
7576;DHT22;3829;50.798;4.358;2024-01-27T08:49:37;3.70;99.90
7576;DHT22;3829;50.798;4.358;2024-01-27T08:52:03;3.80;99.90
7576;DHT22;3829;50.798;4.358;2024-01-27T08:54:28;3.90;99.90
7576;DHT22;3829;50.798;4.358;2024-01-27T08:56:54;3.90;99.90
7576;DHT22;3829;50.798;4.358;2024-01-27T08:59:20;4.00;99.90
7576;DHT22;3829;50.798;4.358;2024-01-27T09:01:46;4.10;99.90
7576;DHT22;3829;50.798;4.358;2024-01-27T09:04:11;4.30;99.90
7576;DHT22;3829;50.798;4.358;2024-01-27T09:06:37;4.40;99.90
7576;DHT22;3829;50.798;4.358;2024-01-27T09:09:02;4.50;99.90
7576;DHT22;3829;50.798;4.358;2024-01-27T09:11:28;4.60;99.90
7576;DHT22;3829;50.798;4.358;2024-01-27T09:13:56;4.70;99.90
7576;DHT22;3829;50.798;4.358;2024-01-27T09:16:22;4.80;99.90
7576;DHT22;3829;50.798;4.358;2024-01-27T09:18:47;4.90;99.90
7576;DHT22;3829;50.798;4.358;2024-01-27T09:21:15;5.00;99.90
7576;DHT22;3829;50.798;4.358;2024-01-27T09:23:46;5.00;99.90
7576;DHT22;3829;50.798;4.358;2024-01-27T09:26:12;5.10;99.90
7576;DHT22;3829;50.798;4.358;2024-01-27T09:28:38;5.20;99.90
7576;DHT22;3829;50.798;4.358;2024-01-27T09:31:10;5.30;99.90
7576;DHT22;3829;50.798;4.358;2024-01-27T09:33:36;5.40;99.90
7576;DHT22;3829;50.798;4.358;2024-01-27T09:36:01;5.50;99.90
7576;DHT22;3829;50.798;4.358;2024-01-27T09:38:27;5.60;99.90
7576;DHT22;3829;50.798;4.358;2024-01-27T09:40:52;5.60;99.90
7576;DHT22;3829;50.798;4.358;2024-01-27T09:43:18;5.70;99.90
7576;DHT22;3829;50.798;4.358;2024-01-27T09:45:45;5.80;99.90
7576;DHT22;3829;50.798;4.358;2024-01-27T09:48:12;5.90;99.90
7576;DHT22;3829;50.798;4.358;2024-01-27T09:50:41;5.80;99.90
7576;DHT22;3829;50.798;4.358;2024-01-27T09:53:06;5.90;99.90
7576;DHT22;3829;50.798;4.358;2024-01-27T09:55:34;6.10;99.90
7576;DHT22;3829;50.798;4.358;2024-01-27T09:58:00;6.00;99.90
7576;DHT22;3829;50.798;4.358;2024-01-27T10:00:27;6.10;99.90
7576;DHT22;3829;50.798;4.358;2024-01-27T10:02:54;6.20;99.90
7576;DHT22;3829;50.798;4.358;2024-01-27T10:05:20;6.30;99.90
7576;DHT22;3829;50.798;4.358;2024-01-27T10:07:46;6.30;99.90
7576;DHT22;3829;50.798;4.358;2024-01-27T10:10:12;6.40;99.90
7576;DHT22;3829;50.798;4.358;2024-01-27T10:12:40;6.40;99.90
7576;DHT22;3829;50.798;4.358;2024-01-27T10:15:19;6.60;99.90
7576;DHT22;3829;50.798;4.358;2024-01-27T10:17:45;6.80;99.90
7576;DHT22;3829;50.798;4.358;2024-01-27T10:20:11;6.90;99.90
7576;DHT22;3829;50.798;4.358;2024-01-27T10:22:41;7.10;99.90
7576;DHT22;3829;50.798;4.358;2024-01-27T10:25:08;7.40;99.90
7576;DHT22;3829;50.798;4.358;2024-01-27T10:27:34;7.60;99.90
7576;DHT22;3829;50.798;4.358;2024-01-27T10:30:01;7.70;99.90
7576;DHT22;3829;50.798;4.358;2024-01-27T10:32:26;7.80;99.90
7576;DHT22;3829;50.798;4.358;2024-01-27T10:35:08;7.80;99.90
7576;DHT22;3829;50.798;4.358;2024-01-27T10:37:34;7.70;99.90
7576;DHT22;3829;50.798;4.358;2024-01-27T10:40:02;7.70;99.90
7576;DHT22;3829;50.798;4.358;2024-01-27T10:42:29;7.70;99.90
7576;DHT22;3829;50.798;4.358;2024-01-27T10:44:58;7.70;99.90
7576;DHT22;3829;50.798;4.358;2024-01-27T10:47:26;7.80;99.90
7576;DHT22;3829;50.798;4.358;2024-01-27T10:49:55;7.80;99.90
7576;DHT22;3829;50.798;4.358;2024-01-27T10:52:25;8.00;99.90
7576;DHT22;3829;50.798;4.358;2024-01-27T10:54:57;7.90;99.90
7576;DHT22;3829;50.798;4.358;2024-01-27T10:57:26;7.90;99.90
7576;DHT22;3829;50.798;4.358;2024-01-27T10:59:53;7.90;99.90
7576;DHT22;3829;50.798;4.358;2024-01-27T11:02:19;8.00;99.90
7576;DHT22;3829;50.798;4.358;2024-01-27T11:04:48;8.00;99.90
7576;DHT22;3829;50.798;4.358;2024-01-27T11:07:14;8.00;99.90
7576;DHT22;3829;50.798;4.358;2024-01-27T11:09:39;8.10;99.90
7576;DHT22;3829;50.798;4.358;2024-01-27T11:12:07;8.10;99.90
7576;DHT22;3829;50.798;4.358;2024-01-27T11:14:34;8.00;99.90
7576;DHT22;3829;50.798;4.358;2024-01-27T11:16:59;7.90;99.90
7576;DHT22;3829;50.798;4.358;2024-01-27T11:19:25;8.00;99.90
7576;DHT22;3829;50.798;4.358;2024-01-27T11:22:00;8.00;99.90
7576;DHT22;3829;50.798;4.358;2024-01-27T11:24:27;7.90;99.90
7576;DHT22;3829;50.798;4.358;2024-01-27T11:27:04;8.00;99.90
7576;DHT22;3829;50.798;4.358;2024-01-27T11:29:30;8.00;99.90
7576;DHT22;3829;50.798;4.358;2024-01-27T11:32:00;8.10;99.90
7576;DHT22;3829;50.798;4.358;2024-01-27T11:34:26;8.20;99.90
7576;DHT22;3829;50.798;4.358;2024-01-27T11:36:52;8.20;99.90
7576;DHT22;3829;50.798;4.358;2024-01-27T11:39:28;8.20;99.90
7576;DHT22;3829;50.798;4.358;2024-01-27T11:42:09;8.40;99.90
7576;DHT22;3829;50.798;4.358;2024-01-27T11:44:38;8.50;99.90
7576;DHT22;3829;50.798;4.358;2024-01-27T11:47:05;8.60;99.90
7576;DHT22;3829;50.798;4.358;2024-01-27T11:49:30;8.80;99.90
7576;DHT22;3829;50.798;4.358;2024-01-27T11:51:56;8.70;99.90
7576;DHT22;3829;50.798;4.358;2024-01-27T11:54:22;8.70;99.90
7576;DHT22;3829;50.798;4.358;2024-01-27T11:56:47;8.70;99.90
7576;DHT22;3829;50.798;4.358;2024-01-27T11:59:14;8.90;99.90
7576;DHT22;3829;50.798;4.358;2024-01-27T12:01:39;9.00;99.90
7576;DHT22;3829;50.798;4.358;2024-01-27T12:04:05;9.30;99.90
7576;DHT22;3829;50.798;4.358;2024-01-27T12:06:31;9.50;99.90
7576;DHT22;3829;50.798;4.358;2024-01-27T12:08:57;9.60;99.90
7576;DHT22;3829;50.798;4.358;2024-01-27T12:11:24;9.80;99.90
7576;DHT22;3829;50.798;4.358;2024-01-27T12:13:49;9.70;99.90
7576;DHT22;3829;50.798;4.358;2024-01-27T12:16:16;9.80;99.90
7576;DHT22;3829;50.798;4.358;2024-01-27T12:18:41;9.80;99.90
7576;DHT22;3829;50.798;4.358;2024-01-27T12:21:07;9.70;99.90
7576;DHT22;3829;50.798;4.358;2024-01-27T12:23:32;9.80;99.90
7576;DHT22;3829;50.798;4.358;2024-01-27T12:25:58;9.90;99.90
7576;DHT22;3829;50.798;4.358;2024-01-27T12:28:24;10.00;99.90
7576;DHT22;3829;50.798;4.358;2024-01-27T12:30:51;9.90;99.90
7576;DHT22;3829;50.798;4.358;2024-01-27T12:33:17;10.00;99.90
7576;DHT22;3829;50.798;4.358;2024-01-27T12:35:45;10.20;99.90
7576;DHT22;3829;50.798;4.358;2024-01-27T12:38:12;10.40;99.90
7576;DHT22;3829;50.798;4.358;2024-01-27T12:40:37;10.60;99.90
7576;DHT22;3829;50.798;4.358;2024-01-27T12:43:03;10.60;99.90
7576;DHT22;3829;50.798;4.358;2024-01-27T12:45:29;10.60;99.90
7576;DHT22;3829;50.798;4.358;2024-01-27T12:47:55;10.60;99.90
7576;DHT22;3829;50.798;4.358;2024-01-27T12:50:20;10.60;99.90
7576;DHT22;3829;50.798;4.358;2024-01-27T12:52:46;10.40;99.90
7576;DHT22;3829;50.798;4.358;2024-01-27T12:55:12;10.10;99.90
7576;DHT22;3829;50.798;4.358;2024-01-27T12:57:38;10.10;99.90
7576;DHT22;3829;50.798;4.358;2024-01-27T13:00:06;10.20;99.90
7576;DHT22;3829;50.798;4.358;2024-01-27T13:02:36;10.20;99.90
7576;DHT22;3829;50.798;4.358;2024-01-27T13:05:02;10.10;99.90
7576;DHT22;3829;50.798;4.358;2024-01-27T13:07:28;10.00;99.90
7576;DHT22;3829;50.798;4.358;2024-01-27T13:09:53;9.90;99.90
7576;DHT22;3829;50.798;4.358;2024-01-27T13:12:19;9.80;99.90
7576;DHT22;3829;50.798;4.358;2024-01-27T13:14:44;9.90;99.90
7576;DHT22;3829;50.798;4.358;2024-01-27T13:17:10;9.80;99.90
7576;DHT22;3829;50.798;4.358;2024-01-27T13:19:36;9.80;99.90
7576;DHT22;3829;50.798;4.358;2024-01-27T13:22:01;9.90;99.90
7576;DHT22;3829;50.798;4.358;2024-01-27T13:24:28;9.80;99.90
7576;DHT22;3829;50.798;4.358;2024-01-27T13:26:53;9.70;99.90
7576;DHT22;3829;50.798;4.358;2024-01-27T13:29:19;9.70;99.90
7576;DHT22;3829;50.798;4.358;2024-01-27T13:31:45;9.40;99.90
7576;DHT22;3829;50.798;4.358;2024-01-27T13:34:12;9.40;99.90
7576;DHT22;3829;50.798;4.358;2024-01-27T13:36:37;9.40;99.90
7576;DHT22;3829;50.798;4.358;2024-01-27T13:39:03;9.60;99.90
7576;DHT22;3829;50.798;4.358;2024-01-27T13:41:29;9.60;99.90
7576;DHT22;3829;50.798;4.358;2024-01-27T13:43:55;9.70;99.90
7576;DHT22;3829;50.798;4.358;2024-01-27T13:46:21;9.70;99.90
7576;DHT22;3829;50.798;4.358;2024-01-27T13:48:48;9.80;99.90
7576;DHT22;3829;50.798;4.358;2024-01-27T13:51:13;9.80;99.90
7576;DHT22;3829;50.798;4.358;2024-01-27T13:53:39;9.70;99.90
7576;DHT22;3829;50.798;4.358;2024-01-27T13:56:05;9.80;99.90
7576;DHT22;3829;50.798;4.358;2024-01-27T13:58:30;9.80;99.90
7576;DHT22;3829;50.798;4.358;2024-01-27T14:00:56;9.80;99.90
7576;DHT22;3829;50.798;4.358;2024-01-27T14:03:21;9.70;99.90
7576;DHT22;3829;50.798;4.358;2024-01-27T14:05:48;9.70;99.90
7576;DHT22;3829;50.798;4.358;2024-01-27T14:08:14;9.70;99.90
7576;DHT22;3829;50.798;4.358;2024-01-27T14:10:40;9.80;99.90
7576;DHT22;3829;50.798;4.358;2024-01-27T14:13:08;9.70;99.90
7576;DHT22;3829;50.798;4.358;2024-01-27T14:15:35;9.60;99.90
7576;DHT22;3829;50.798;4.358;2024-01-27T14:18:01;9.50;99.90
7576;DHT22;3829;50.798;4.358;2024-01-27T14:20:27;9.50;99.90
7576;DHT22;3829;50.798;4.358;2024-01-27T14:22:55;9.40;99.90
7576;DHT22;3829;50.798;4.358;2024-01-27T14:25:20;9.40;99.90
7576;DHT22;3829;50.798;4.358;2024-01-27T14:27:46;9.20;99.90
7576;DHT22;3829;50.798;4.358;2024-01-27T14:30:12;9.30;99.90
7576;DHT22;3829;50.798;4.358;2024-01-27T14:32:38;9.30;99.90
7576;DHT22;3829;50.798;4.358;2024-01-27T14:35:04;9.20;99.90
7576;DHT22;3829;50.798;4.358;2024-01-27T14:37:32;9.10;99.90
7576;DHT22;3829;50.798;4.358;2024-01-27T14:39:57;9.20;99.90
7576;DHT22;3829;50.798;4.358;2024-01-27T14:42:23;9.10;99.90
7576;DHT22;3829;50.798;4.358;2024-01-27T14:44:48;9.10;99.90
7576;DHT22;3829;50.798;4.358;2024-01-27T14:47:16;9.00;99.90
7576;DHT22;3829;50.798;4.358;2024-01-27T14:49:41;9.00;99.90
7576;DHT22;3829;50.798;4.358;2024-01-27T14:52:09;8.90;99.90
7576;DHT22;3829;50.798;4.358;2024-01-27T14:54:36;8.80;99.90
7576;DHT22;3829;50.798;4.358;2024-01-27T14:57:02;8.70;99.90
7576;DHT22;3829;50.798;4.358;2024-01-27T14:59:28;8.60;99.90
7576;DHT22;3829;50.798;4.358;2024-01-27T15:01:54;8.50;99.90
7576;DHT22;3829;50.798;4.358;2024-01-27T15:04:22;8.60;99.90
7576;DHT22;3829;50.798;4.358;2024-01-27T15:06:54;8.40;99.90
7576;DHT22;3829;50.798;4.358;2024-01-27T15:09:21;8.50;99.90
7576;DHT22;3829;50.798;4.358;2024-01-27T15:11:47;8.40;99.90
7576;DHT22;3829;50.798;4.358;2024-01-27T15:14:13;8.50;99.90
7576;DHT22;3829;50.798;4.358;2024-01-27T15:16:39;8.50;99.90
7576;DHT22;3829;50.798;4.358;2024-01-27T15:19:04;8.50;99.90
7576;DHT22;3829;50.798;4.358;2024-01-27T15:21:30;8.60;99.90
7576;DHT22;3829;50.798;4.358;2024-01-27T15:23:56;8.50;99.90
7576;DHT22;3829;50.798;4.358;2024-01-27T15:26:22;8.60;99.90
7576;DHT22;3829;50.798;4.358;2024-01-27T15:28:48;8.60;99.90
7576;DHT22;3829;50.798;4.358;2024-01-27T15:31:14;8.60;99.90
7576;DHT22;3829;50.798;4.358;2024-01-27T15:33:39;8.60;99.90
7576;DHT22;3829;50.798;4.358;2024-01-27T15:36:05;8.60;99.90
7576;DHT22;3829;50.798;4.358;2024-01-27T15:38:31;8.50;99.90
7576;DHT22;3829;50.798;4.358;2024-01-27T15:40:56;8.60;99.90
7576;DHT22;3829;50.798;4.358;2024-01-27T15:43:22;8.50;99.90
7576;DHT22;3829;50.798;4.358;2024-01-27T15:45:48;8.50;99.90
7576;DHT22;3829;50.798;4.358;2024-01-27T15:48:13;8.40;99.90
7576;DHT22;3829;50.798;4.358;2024-01-27T15:50:39;8.40;99.90
7576;DHT22;3829;50.798;4.358;2024-01-27T15:53:05;8.30;99.90
7576;DHT22;3829;50.798;4.358;2024-01-27T15:55:30;8.30;99.90
7576;DHT22;3829;50.798;4.358;2024-01-27T15:57:57;8.20;99.90
7576;DHT22;3829;50.798;4.358;2024-01-27T16:00:23;8.10;99.90
7576;DHT22;3829;50.798;4.358;2024-01-27T16:02:48;8.00;99.90
7576;DHT22;3829;50.798;4.358;2024-01-27T16:05:14;7.90;99.90
7576;DHT22;3829;50.798;4.358;2024-01-27T16:07:40;7.80;99.90
7576;DHT22;3829;50.798;4.358;2024-01-27T16:10:06;7.80;99.90